createdAt,value
2023-02-14T00:02:24.478Z,102846.53
2023-02-14T00:04:51.034Z,102848.28
2023-02-14T00:07:17.605Z,102843.00
2023-02-14T00:09:44.133Z,102843.91
2023-02-14T00:12:10.572Z,102838.63
2023-02-14T00:14:55.364Z,102843.03
2023-02-14T00:17:21.796Z,102846.53
2023-02-14T00:19:48.465Z,102844.78
2023-02-14T00:22:14.875Z,102844.78
2023-02-14T00:24:41.317Z,102833.38
2023-02-14T00:27:07.845Z,102830.75
2023-02-14T00:29:34.425Z,102836.88
2023-02-14T00:32:01.305Z,102836.03
2023-02-14T00:34:28.146Z,102841.28
2023-02-14T00:36:54.660Z,102836.03
2023-02-14T00:39:21.221Z,102839.50
2023-02-14T00:41:47.821Z,102838.63
2023-02-14T00:44:14.289Z,102830.75
2023-02-14T00:46:40.981Z,102839.53
2023-02-14T00:49:07.471Z,102843.91
2023-02-14T00:51:33.953Z,102837.78
2023-02-14T00:54:00.745Z,102841.25
2023-02-14T00:56:27.653Z,102846.53
2023-02-14T00:58:54.114Z,102844.78
2023-02-14T01:01:21.097Z,102842.13
2023-02-14T01:03:47.856Z,102842.16
2023-02-14T01:06:14.808Z,102834.25
2023-02-14T01:08:41.301Z,102840.38
2023-02-14T01:11:13.883Z,102836.03
2023-02-14T01:13:41.327Z,102833.38
2023-02-14T01:16:11.021Z,102833.38
2023-02-14T01:18:38.848Z,102830.75
2023-02-14T01:21:17.305Z,102840.38
2023-02-14T01:23:45.003Z,102829.88
2023-02-14T01:26:11.801Z,102837.78
2023-02-14T01:28:40.212Z,102831.63
2023-02-14T01:31:10.739Z,102827.25
2023-02-14T01:33:38.147Z,102830.78
2023-02-14T01:36:04.897Z,102825.50
2023-02-14T01:38:31.397Z,102824.59
2023-02-14T01:40:58.532Z,102826.38
2023-02-14T01:43:25.445Z,102829.00
2023-02-14T01:45:51.886Z,102826.38
2023-02-14T01:48:21.812Z,102829.88
2023-02-14T01:50:51.781Z,102830.75
2023-02-14T01:53:24.776Z,102841.28
2023-02-14T01:55:58.633Z,102827.28
2023-02-14T01:58:29.554Z,102823.72
2023-02-14T02:00:59.452Z,102822.88
2023-02-14T02:03:30.782Z,102826.38
2023-02-14T02:06:10.304Z,102820.22
2023-02-14T02:08:41.769Z,102811.47
2023-02-14T02:11:08.414Z,102818.50
2023-02-14T02:13:34.822Z,102816.72
2023-02-14T02:16:19.288Z,102813.25
2023-02-14T02:19:02.964Z,102813.22
2023-02-14T02:21:35.416Z,102806.22
2023-02-14T02:24:20.812Z,102810.59
2023-02-14T02:27:29.139Z,102803.56
2023-02-14T02:30:15.953Z,102803.56
2023-02-14T02:32:48.008Z,102793.03
2023-02-14T02:35:40.567Z,102806.19
2023-02-14T02:38:25.130Z,102803.56
2023-02-14T02:41:04.003Z,102799.19
2023-02-14T02:43:55.342Z,102793.91
2023-02-14T02:46:48.942Z,102793.91
2023-02-14T02:49:43.209Z,102790.41
2023-02-14T02:52:35.432Z,102786.91
2023-02-14T02:55:13.851Z,102780.75
2023-02-14T02:57:42.712Z,102779.91
2023-02-14T03:00:13.459Z,102779.91
2023-02-14T03:03:07.313Z,102777.28
2023-02-14T03:05:35.306Z,102774.63
2023-02-14T03:08:03.003Z,102779.91
2023-02-14T03:10:37.323Z,102773.78
2023-02-14T03:13:14.376Z,102772.03
2023-02-14T03:15:58.387Z,102770.25
2023-02-14T03:19:19.161Z,102769.38
2023-02-14T03:22:03.567Z,102773.78
2023-02-14T03:24:57.478Z,102778.16
2023-02-14T03:27:47.863Z,102770.25
2023-02-14T03:30:40.265Z,102769.41
2023-02-14T03:33:17.076Z,102764.16
2023-02-14T03:36:25.084Z,102762.38
2023-02-14T03:39:02.453Z,102763.25
2023-02-14T03:41:35.710Z,102750.09
2023-02-14T03:44:07.100Z,102753.63
2023-02-14T03:46:42.610Z,102746.59
2023-02-14T03:49:13.606Z,102750.09
2023-02-14T03:51:41.403Z,102746.63
2023-02-14T03:54:10.571Z,102747.47
2023-02-14T03:56:50.264Z,102741.31
2023-02-14T03:59:22.342Z,102742.19
2023-02-14T04:01:58.271Z,102741.31
2023-02-14T04:04:28.449Z,102743.94
2023-02-14T04:06:55.174Z,102746.53
2023-02-14T04:09:21.602Z,102745.66
2023-02-14T04:11:50.313Z,102745.63
2023-02-14T04:14:17.566Z,102736.91
2023-02-14T04:17:02.663Z,102736.06
2023-02-14T04:19:29.120Z,102733.44
2023-02-14T04:21:55.556Z,102735.19
2023-02-14T04:24:21.961Z,102736.00
2023-02-14T04:26:54.357Z,102736.88
2023-02-14T04:29:21.332Z,102729.91
2023-02-14T04:31:48.005Z,102737.72
2023-02-14T04:34:15.001Z,102730.75
2023-02-14T04:36:41.411Z,102729.94
2023-02-14T04:39:07.855Z,102729.06
2023-02-14T04:41:34.252Z,102729.06
2023-02-14T04:44:00.765Z,102729.91
2023-02-14T04:46:27.213Z,102735.09
2023-02-14T04:48:53.645Z,102721.09
2023-02-14T04:51:20.058Z,102730.72
2023-02-14T04:53:46.451Z,102716.81
2023-02-14T04:56:12.888Z,102726.34
2023-02-14T04:58:39.368Z,102733.38
2023-02-14T05:01:05.854Z,102723.75
2023-02-14T05:03:32.406Z,102718.44
2023-02-14T05:05:58.820Z,102723.72
2023-02-14T05:08:25.317Z,102729.75
2023-02-14T05:10:51.757Z,102720.06
2023-02-14T05:13:18.238Z,102721.97
2023-02-14T05:15:45.541Z,102725.28
2023-02-14T05:18:11.987Z,102715.72
2023-02-14T05:20:38.408Z,102732.22
2023-02-14T05:23:05.241Z,102734.78
2023-02-14T05:25:31.951Z,102727.97
2023-02-14T05:27:58.465Z,102722.75
2023-02-14T05:30:27.910Z,102720.88
2023-02-14T05:32:54.600Z,102722.59
2023-02-14T05:35:21.013Z,102713.88
2023-02-14T05:37:47.397Z,102733.00
2023-02-14T05:40:15.140Z,102725.84
2023-02-14T05:42:45.011Z,102718.91
2023-02-14T05:45:11.912Z,102725.00
2023-02-14T05:47:38.995Z,102724.13
2023-02-14T05:50:06.538Z,102725.97
2023-02-14T05:52:32.953Z,102720.75
2023-02-14T05:54:59.337Z,102721.72
2023-02-14T05:57:25.812Z,102721.94
2023-02-14T05:59:52.210Z,102720.69
2023-02-14T06:02:18.720Z,102717.94
2023-02-14T06:04:45.260Z,102719.16
2023-02-14T06:07:11.697Z,102724.72
2023-02-14T06:09:38.103Z,102718.03
2023-02-14T06:12:04.705Z,102718.19
2023-02-14T06:14:31.158Z,102716.91
2023-02-14T06:16:57.623Z,102728.53
2023-02-14T06:19:24.076Z,102719.97
2023-02-14T06:21:50.456Z,102724.22
2023-02-14T06:24:16.880Z,102729.38
2023-02-14T06:26:43.328Z,102725.06
2023-02-14T06:29:10.039Z,102732.94
2023-02-14T06:31:36.645Z,102730.41
2023-02-14T06:34:03.148Z,102729.34
2023-02-14T06:36:29.574Z,102737.06
2023-02-14T06:38:55.988Z,102735.66
2023-02-14T06:41:22.412Z,102730.13
2023-02-14T06:43:48.879Z,102738.88
2023-02-14T06:46:16.307Z,102743.91
2023-02-14T06:48:42.937Z,102749.88
2023-02-14T06:51:09.850Z,102743.84
2023-02-14T06:53:36.567Z,102750.13
2023-02-14T06:56:04.094Z,102744.16
2023-02-14T06:58:30.695Z,102730.13
2023-02-14T07:00:58.990Z,102744.00
2023-02-14T07:03:26.780Z,102735.38
2023-02-14T07:05:53.715Z,102744.91
2023-02-14T07:08:20.665Z,102749.25
2023-02-14T07:10:47.213Z,102746.81
2023-02-14T07:13:13.647Z,102743.19
2023-02-14T07:15:40.146Z,102736.16
2023-02-14T07:18:08.686Z,102738.19
2023-02-14T07:20:35.514Z,102737.06
2023-02-14T07:23:01.934Z,102745.16
2023-02-14T07:25:28.348Z,102741.53
2023-02-14T07:27:54.792Z,102749.88
2023-02-14T07:30:21.683Z,102732.56
2023-02-14T07:32:48.127Z,102749.59
2023-02-14T07:35:15.358Z,102747.41
2023-02-14T07:37:41.998Z,102745.03
2023-02-14T07:40:14.552Z,102745.81
2023-02-14T07:42:41.520Z,102750.03
2023-02-14T07:45:20.663Z,102745.66
2023-02-14T07:47:50.485Z,102749.34
2023-02-14T07:50:17.552Z,102744.09
2023-02-14T07:52:44.883Z,102733.44
2023-02-14T07:55:11.770Z,102737.06
2023-02-14T07:57:38.237Z,102738.91
2023-02-14T08:00:06.616Z,102735.31
2023-02-14T08:02:33.164Z,102735.13
2023-02-14T08:04:59.633Z,102740.13
2023-02-14T08:07:26.084Z,102730.69
2023-02-14T08:09:52.533Z,102737.75
2023-02-14T08:12:37.279Z,102730.22
2023-02-14T08:15:22.586Z,102732.16
2023-02-14T08:17:49.013Z,102733.13
2023-02-14T08:20:15.435Z,102736.28
2023-02-14T08:22:41.912Z,102732.94
2023-02-14T08:25:08.551Z,102733.44
2023-02-14T08:27:34.996Z,102726.00
2023-02-14T08:30:01.532Z,102735.72
2023-02-14T08:32:28.091Z,102735.66
2023-02-14T08:34:54.612Z,102730.53
2023-02-14T08:37:21.028Z,102730.59
2023-02-14T08:39:47.456Z,102732.06
2023-02-14T08:42:13.909Z,102732.47
2023-02-14T08:44:40.317Z,102726.88
2023-02-14T08:47:07.100Z,102733.13
2023-02-14T08:49:33.548Z,102727.06
2023-02-14T08:51:59.987Z,102733.25
2023-02-14T08:54:26.415Z,102722.69
2023-02-14T08:56:52.871Z,102721.84
2023-02-14T08:59:19.321Z,102720.28
2023-02-14T09:01:45.750Z,102732.56
2023-02-14T09:04:12.241Z,102729.09
2023-02-14T09:06:39.527Z,102727.31
2023-02-14T09:09:06.739Z,102726.47
2023-02-14T09:11:33.451Z,102731.72
2023-02-14T09:13:59.888Z,102731.66
2023-02-14T09:16:26.651Z,102729.09
2023-02-14T09:18:53.455Z,102732.44
2023-02-14T09:21:23.270Z,102723.81
2023-02-14T09:23:49.822Z,102718.50
2023-02-14T09:26:16.926Z,102721.19
2023-02-14T09:28:43.431Z,102722.09
2023-02-14T09:31:11.360Z,102725.56
2023-02-14T09:33:56.957Z,102718.56
2023-02-14T09:36:41.768Z,102720.28
2023-02-14T09:39:08.280Z,102715.81
2023-02-14T09:42:02.734Z,102704.13
2023-02-14T09:44:36.761Z,102703.22
2023-02-14T09:47:44.888Z,102715.75
2023-02-14T09:50:22.505Z,102707.69
2023-02-14T09:52:55.383Z,102720.16
2023-02-14T09:55:22.475Z,102708.69
2023-02-14T09:58:12.432Z,102708.75
2023-02-14T10:00:46.579Z,102710.34
2023-02-14T10:03:28.135Z,102706.03
2023-02-14T10:05:58.949Z,102718.38
2023-02-14T10:08:39.267Z,102711.03
2023-02-14T10:11:14.394Z,102711.19
2023-02-14T10:13:53.176Z,102705.81
2023-02-14T10:16:27.209Z,102702.16
2023-02-14T10:19:01.361Z,102706.41
2023-02-14T10:21:38.315Z,102706.56
2023-02-14T10:24:17.748Z,102703.97
2023-02-14T10:26:47.296Z,102695.44
2023-02-14T10:29:16.372Z,102698.16
2023-02-14T10:32:02.368Z,102689.16
2023-02-14T10:34:34.586Z,102692.88
2023-02-14T10:37:19.871Z,102702.16
2023-02-14T10:40:10.943Z,102695.03
2023-02-14T10:42:55.695Z,102692.38
2023-02-14T10:45:53.540Z,102692.13
2023-02-14T10:48:29.336Z,102689.16
2023-02-14T10:51:33.457Z,102681.72
2023-02-14T10:54:18.775Z,102688.03
2023-02-14T10:56:50.354Z,102680.19
2023-02-14T10:59:46.465Z,102676.00
2023-02-14T11:02:16.136Z,102674.09
2023-02-14T11:04:47.062Z,102665.25
2023-02-14T11:07:14.970Z,102675.59
2023-02-14T11:09:41.652Z,102670.63
2023-02-14T11:12:08.552Z,102667.69
2023-02-14T11:14:37.493Z,102668.19
2023-02-14T11:17:30.447Z,102667.53
2023-02-14T11:20:02.968Z,102668.97
2023-02-14T11:22:30.629Z,102675.69
2023-02-14T11:25:18.145Z,102660.38
2023-02-14T11:27:50.965Z,102659.69
2023-02-14T11:30:26.950Z,102659.16
2023-02-14T11:32:56.826Z,102659.09
2023-02-14T11:35:27.595Z,102652.13
2023-02-14T11:37:56.994Z,102651.47
2023-02-14T11:40:38.109Z,102644.88
2023-02-14T11:43:14.195Z,102640.94
2023-02-14T11:45:44.426Z,102634.66
2023-02-14T11:48:34.917Z,102624.88
2023-02-14T11:51:16.756Z,102615.69
2023-02-14T11:53:47.744Z,102623.84
2023-02-14T11:56:19.181Z,102625.16
2023-02-14T11:58:55.858Z,102615.88
2023-02-14T12:01:32.155Z,102605.31
2023-02-14T12:04:12.218Z,102603.97
2023-02-14T12:06:38.703Z,102605.63
2023-02-14T12:09:23.536Z,102595.97
2023-02-14T12:11:59.854Z,102599.16
2023-02-14T12:14:31.641Z,102596.50
2023-02-14T12:17:24.086Z,102592.59
2023-02-14T12:20:11.933Z,102585.06
2023-02-14T12:23:05.139Z,102576.91
2023-02-14T12:25:44.322Z,102583.03
2023-02-14T12:28:15.355Z,102580.84
2023-02-14T12:30:41.911Z,102573.22
2023-02-14T12:33:22.946Z,102571.97
2023-02-14T12:36:26.950Z,102562.50
2023-02-14T12:39:26.041Z,102565.69
2023-02-14T12:42:11.912Z,102562.72
2023-02-14T12:44:56.289Z,102564.81
2023-02-14T12:47:32.186Z,102559.03
2023-02-14T12:50:27.913Z,102547.72
2023-02-14T12:53:17.056Z,102545.25
2023-02-14T12:55:54.734Z,102537.66
2023-02-14T12:58:28.502Z,102535.81
2023-02-14T13:01:28.901Z,102535.94
2023-02-14T13:04:20.958Z,102534.38
2023-02-14T13:07:22.591Z,102532.69
2023-02-14T13:09:59.553Z,102536.69
2023-02-14T13:12:36.115Z,102535.69
2023-02-14T13:15:06.844Z,102527.19
2023-02-14T13:17:41.991Z,102534.31
2023-02-14T13:20:24.840Z,102531.22
2023-02-14T13:22:54.602Z,102528.53
2023-02-14T13:25:33.485Z,102527.75
2023-02-14T13:28:04.080Z,102522.94
2023-02-14T13:30:33.600Z,102515.25
2023-02-14T13:33:08.975Z,102519.44
2023-02-14T13:35:36.220Z,102506.63
2023-02-14T13:38:06.931Z,102498.94
2023-02-14T13:40:35.606Z,102497.81
2023-02-14T13:43:02.905Z,102501.75
2023-02-14T13:45:29.250Z,102502.91
2023-02-14T13:48:17.080Z,102491.34
2023-02-14T13:50:57.746Z,102500.28
2023-02-14T13:53:30.595Z,102492.31
2023-02-14T13:55:57.578Z,102502.44
2023-02-14T13:58:25.680Z,102497.94
2023-02-14T14:00:53.152Z,102505.69
2023-02-14T14:03:28.987Z,102511.22
2023-02-14T14:06:01.128Z,102514.78
2023-02-14T14:08:30.569Z,102504.66
2023-02-14T14:11:10.130Z,102508.41
2023-02-14T14:13:42.735Z,102507.13
2023-02-14T14:16:24.553Z,102504.81
2023-02-14T14:18:53.236Z,102506.28
2023-02-14T14:21:28.872Z,102505.50
2023-02-14T14:24:28.835Z,102505.47
2023-02-14T14:27:02.981Z,102491.44
2023-02-14T14:29:39.396Z,102485.00
2023-02-14T14:32:18.099Z,102488.22
2023-02-14T14:34:55.039Z,102493.22
2023-02-14T14:37:28.422Z,102490.56
2023-02-14T14:40:00.169Z,102484.94
2023-02-14T14:42:32.203Z,102484.50
2023-02-14T14:45:06.910Z,102472.13
2023-02-14T14:47:45.311Z,102484.16
2023-02-14T14:50:24.572Z,102477.69
2023-02-14T14:53:38.292Z,102485.78
2023-02-14T14:56:04.788Z,102470.31
2023-02-14T14:58:40.318Z,102466.59
2023-02-14T15:01:13.176Z,102463.25
2023-02-14T15:03:40.009Z,102470.63
2023-02-14T15:06:17.366Z,102471.28
2023-02-14T15:08:44.268Z,102472.91
2023-02-14T15:11:41.754Z,102464.78
2023-02-14T15:14:17.808Z,102461.94
2023-02-14T15:16:51.344Z,102468.59
2023-02-14T15:19:40.851Z,102458.19
2023-02-14T15:22:19.753Z,102460.00
2023-02-14T15:24:46.925Z,102457.13
2023-02-14T15:27:19.246Z,102455.91
2023-02-14T15:30:02.271Z,102455.00
2023-02-14T15:32:32.105Z,102455.00
2023-02-14T15:35:01.726Z,102455.88
2023-02-14T15:37:28.644Z,102455.66
2023-02-14T15:39:56.573Z,102444.09
2023-02-14T15:42:32.717Z,102444.41
2023-02-14T15:45:17.786Z,102440.91
2023-02-14T15:47:47.518Z,102431.16
2023-02-14T15:50:25.144Z,102432.59
2023-02-14T15:53:02.573Z,102433.59
2023-02-14T15:55:30.848Z,102436.13
2023-02-14T15:58:04.836Z,102433.06
2023-02-14T16:00:32.335Z,102421.81
2023-02-14T16:03:04.989Z,102424.66
2023-02-14T16:05:31.796Z,102421.50
2023-02-14T16:08:03.675Z,102429.84
2023-02-14T16:10:30.117Z,102424.31
2023-02-14T16:12:57.583Z,102439.50
2023-02-14T16:15:26.789Z,102427.13
2023-02-14T16:17:53.472Z,102430.78
2023-02-14T16:20:36.122Z,102434.41
2023-02-14T16:23:21.316Z,102430.91
2023-02-14T16:25:48.291Z,102430.50
2023-02-14T16:28:15.153Z,102424.31
2023-02-14T16:30:42.786Z,102425.16
2023-02-14T16:33:16.432Z,102425.34
2023-02-14T16:35:42.927Z,102418.34
2023-02-14T16:38:15.801Z,102409.25
2023-02-14T16:40:49.086Z,102417.41
2023-02-14T16:43:17.059Z,102418.31
2023-02-14T16:45:44.326Z,102409.97
2023-02-14T16:48:10.819Z,102406.31
2023-02-14T16:50:39.551Z,102399.88
2023-02-14T16:53:20.512Z,102395.66
2023-02-14T16:55:47.138Z,102401.53
2023-02-14T16:58:14.602Z,102394.13
2023-02-14T17:00:42.008Z,102401.28
2023-02-14T17:03:11.408Z,102390.06
2023-02-14T17:05:39.912Z,102401.25
2023-02-14T17:08:11.067Z,102402.16
2023-02-14T17:10:38.903Z,102395.66
2023-02-14T17:13:06.963Z,102401.13
2023-02-14T17:15:34.238Z,102398.75
2023-02-14T17:18:04.936Z,102396.69
2023-02-14T17:20:31.406Z,102395.97
2023-02-14T17:22:58.274Z,102389.47
2023-02-14T17:25:25.390Z,102383.72
2023-02-14T17:27:51.815Z,102380.91
2023-02-14T17:30:18.715Z,102376.06
2023-02-14T17:32:45.183Z,102377.34
2023-02-14T17:35:11.950Z,102368.31
2023-02-14T17:37:38.380Z,102374.34
2023-02-14T17:40:05.883Z,102371.47
2023-02-14T17:42:33.525Z,102371.03
2023-02-14T17:45:00.025Z,102372.91
2023-02-14T17:47:26.643Z,102378.06
2023-02-14T17:49:53.093Z,102376.19
2023-02-14T17:52:19.619Z,102370.22
2023-02-14T17:54:46.031Z,102371.19
2023-02-14T17:57:12.696Z,102370.78
2023-02-14T17:59:39.275Z,102371.66
2023-02-14T18:02:06.417Z,102363.53
2023-02-14T18:04:34.887Z,102363.97
2023-02-14T18:07:01.286Z,102367.00
2023-02-14T18:09:28.288Z,102366.84
2023-02-14T18:11:55.472Z,102363.88
2023-02-14T18:14:22.459Z,102363.88
2023-02-14T18:16:48.883Z,102363.75
2023-02-14T18:19:17.901Z,102363.81
2023-02-14T18:21:45.452Z,102364.66
2023-02-14T18:24:13.101Z,102362.47
2023-02-14T18:26:41.691Z,102362.28
2023-02-14T18:29:08.293Z,102352.47
2023-02-14T18:31:37.849Z,102361.50
2023-02-14T18:34:05.070Z,102353.59
2023-02-14T18:36:32.295Z,102346.50
2023-02-14T18:38:58.971Z,102350.25
2023-02-14T18:41:26.589Z,102354.63
2023-02-14T18:43:53.086Z,102348.59
2023-02-14T18:46:25.493Z,102353.19
2023-02-14T18:48:52.508Z,102343.38
2023-02-14T18:51:18.884Z,102354.84
2023-02-14T18:53:46.069Z,102349.66
2023-02-14T18:56:15.625Z,102355.03
2023-02-14T18:58:44.474Z,102346.91
2023-02-14T19:01:13.914Z,102346.16
2023-02-14T19:03:41.180Z,102349.78
2023-02-14T19:06:08.868Z,102348.88
2023-02-14T19:08:37.010Z,102355.00
2023-02-14T19:11:03.792Z,102351.50
2023-02-14T19:13:32.146Z,102359.69
2023-02-14T19:15:59.360Z,102349.13
2023-02-14T19:18:26.543Z,102343.38
2023-02-14T19:20:53.143Z,102344.06
2023-02-14T19:23:19.662Z,102339.91
2023-02-14T19:25:46.048Z,102338.09
2023-02-14T19:28:12.529Z,102341.78
2023-02-14T19:30:39.329Z,102337.31
2023-02-14T19:33:06.822Z,102333.81
2023-02-14T19:35:33.264Z,102328.44
2023-02-14T19:38:03.415Z,102324.16
2023-02-14T19:40:30.734Z,102322.69
2023-02-14T19:42:57.202Z,102319.16
2023-02-14T19:45:23.615Z,102321.03
2023-02-14T19:47:50.040Z,102320.19
2023-02-14T19:50:17.572Z,102319.22
2023-02-14T19:52:44.495Z,102322.66
2023-02-14T19:55:20.695Z,102321.78
2023-02-14T19:57:47.965Z,102316.66
2023-02-14T20:00:16.188Z,102310.56
2023-02-14T20:02:47.917Z,102310.59
2023-02-14T20:05:17.587Z,102308.94
2023-02-14T20:07:44.157Z,102295.78
2023-02-14T20:10:12.156Z,102304.69
2023-02-14T20:12:38.684Z,102296.91
2023-02-14T20:15:06.186Z,102289.84
2023-02-14T20:17:33.321Z,102294.25
2023-02-14T20:19:59.899Z,102293.66
2023-02-14T20:22:26.814Z,102286.41
2023-02-14T20:24:53.390Z,102281.19
2023-02-14T20:27:20.485Z,102284.78
2023-02-14T20:29:46.967Z,102293.56
2023-02-14T20:32:15.768Z,102282.47
2023-02-14T20:34:43.006Z,102282.41
2023-02-14T20:37:11.043Z,102286.75
2023-02-14T20:39:38.104Z,102281.56
2023-02-14T20:42:05.493Z,102276.41
2023-02-14T20:44:32.028Z,102271.94
2023-02-14T20:46:58.609Z,102279.16
2023-02-14T20:49:27.168Z,102269.44
2023-02-14T20:51:53.890Z,102264.34
2023-02-14T20:54:23.252Z,102266.66
2023-02-14T20:56:51.591Z,102261.59
2023-02-14T20:59:28.690Z,102259.91
2023-02-14T21:01:57.273Z,102263.84
2023-02-14T21:04:24.895Z,102254.00
2023-02-14T21:06:51.364Z,102255.75
2023-02-14T21:09:18.647Z,102248.75
2023-02-14T21:11:45.187Z,102254.91
2023-02-14T21:14:11.984Z,102259.34
2023-02-14T21:16:38.507Z,102245.28
2023-02-14T21:19:05.762Z,102247.06
2023-02-14T21:21:36.809Z,102249.00
2023-02-14T21:24:12.024Z,102244.44
2023-02-14T21:26:39.029Z,102244.44
2023-02-14T21:29:05.922Z,102245.22
2023-02-14T21:31:32.517Z,102244.31
2023-02-14T21:34:00.981Z,102247.94
2023-02-14T21:36:29.864Z,102254.06
2023-02-14T21:38:58.331Z,102251.44
2023-02-14T21:41:27.761Z,102250.44
2023-02-14T21:43:56.342Z,102248.81
2023-02-14T21:46:30.576Z,102243.56
2023-02-14T21:49:17.358Z,102245.31
2023-02-14T21:51:44.033Z,102246.25
2023-02-14T21:54:11.046Z,102243.66
2023-02-14T21:56:39.406Z,102238.44
2023-02-14T21:59:05.836Z,102238.44
2023-02-14T22:01:34.997Z,102248.91
2023-02-14T22:04:07.668Z,102252.31
2023-02-14T22:06:36.496Z,102243.69
2023-02-14T22:09:04.046Z,102246.31
2023-02-14T22:11:30.729Z,102248.06
2023-02-14T22:13:57.217Z,102248.91
2023-02-14T22:16:24.934Z,102250.69
2023-02-14T22:18:52.144Z,102243.50
2023-02-14T22:21:24.313Z,102234.72
2023-02-14T22:23:51.250Z,102236.50
2023-02-14T22:26:17.655Z,102233.84
2023-02-14T22:28:46.312Z,102240.03
2023-02-14T22:31:14.307Z,102233.97
2023-02-14T22:33:40.899Z,102238.63
2023-02-14T22:36:08.456Z,102233.16
2023-02-14T22:38:35.779Z,102231.59
2023-02-14T22:41:12.159Z,102245.66
2023-02-14T22:43:39.788Z,102234.25
2023-02-14T22:46:09.306Z,102234.19
2023-02-14T22:48:37.522Z,102227.19
2023-02-14T22:51:09.359Z,102232.53
2023-02-14T22:53:36.278Z,102235.06
2023-02-14T22:56:17.118Z,102226.28
2023-02-14T22:58:44.509Z,102228.06
2023-02-14T23:01:19.364Z,102220.25
2023-02-14T23:03:47.810Z,102217.63
2023-02-14T23:06:15.173Z,102215.06
2023-02-14T23:08:43.820Z,102209.25
2023-02-14T23:11:13.536Z,102216.59
2023-02-14T23:13:58.935Z,102216.59
2023-02-14T23:16:44.240Z,102209.59
2023-02-14T23:19:34.981Z,102219.78
2023-02-14T23:22:11.014Z,102219.16
2023-02-14T23:24:37.597Z,102210.25
2023-02-14T23:27:04.659Z,102212.88
2023-02-14T23:29:31.092Z,102206.69
2023-02-14T23:31:57.792Z,102205.16
2023-02-14T23:34:26.519Z,102213.06
2023-02-14T23:36:53.223Z,102212.13
2023-02-14T23:39:19.682Z,102205.13
2023-02-14T23:41:49.121Z,102203.41
2023-02-14T23:44:19.787Z,102200.63
2023-02-14T23:46:48.598Z,102206.00
2023-02-14T23:49:15.924Z,102194.63
2023-02-14T23:51:43.539Z,102194.56
2023-02-14T23:54:10.381Z,102191.09
2023-02-14T23:56:37.457Z,102197.03
2023-02-14T23:59:05.343Z,102190.88
